createdAt,value
2022-11-14T00:00:36.772Z,100.00
2022-11-14T00:04:09.224Z,100.00
2022-11-14T00:07:51.431Z,100.00
2022-11-14T00:11:13.727Z,100.00
2022-11-14T00:15:08.187Z,100.00
2022-11-14T00:18:37.180Z,100.00
2022-11-14T00:22:00.350Z,100.00
2022-11-14T00:25:23.243Z,100.00
2022-11-14T00:28:55.414Z,100.00
2022-11-14T00:32:32.491Z,100.00
2022-11-14T00:35:55.018Z,100.00
2022-11-14T00:39:15.370Z,100.00
2022-11-14T00:42:45.354Z,100.00
2022-11-14T00:46:39.280Z,100.00
2022-11-14T00:50:20.607Z,100.00
2022-11-14T00:53:49.925Z,100.00
2022-11-14T00:57:18.752Z,100.00
2022-11-14T01:00:42.059Z,100.00
2022-11-14T01:04:03.339Z,100.00
2022-11-14T01:07:24.804Z,100.00
2022-11-14T01:11:12.000Z,100.00
2022-11-14T01:14:32.994Z,100.00
2022-11-14T01:17:59.066Z,100.00
2022-11-14T01:21:19.151Z,100.00
2022-11-14T01:24:40.368Z,100.00
2022-11-14T01:28:16.483Z,100.00
2022-11-14T01:31:37.683Z,100.00
2022-11-14T01:35:00.064Z,100.00
2022-11-14T01:38:28.620Z,100.00
2022-11-14T01:41:58.584Z,100.00
2022-11-14T01:45:52.785Z,100.00
2022-11-14T01:50:07.359Z,100.00
2022-11-14T01:53:51.703Z,100.00
2022-11-14T01:57:39.054Z,100.00
2022-11-14T02:01:19.201Z,100.00
2022-11-14T02:04:47.553Z,100.00
2022-11-14T02:08:14.890Z,100.00
2022-11-14T02:11:43.682Z,100.00
2022-11-14T02:15:04.798Z,100.00
2022-11-14T02:18:46.974Z,100.00
2022-11-14T02:22:08.253Z,100.00
2022-11-14T02:26:10.665Z,100.00
2022-11-14T02:29:51.368Z,100.00
2022-11-14T02:33:12.730Z,100.00
2022-11-14T02:36:53.875Z,100.00
2022-11-14T02:40:38.626Z,100.00
2022-11-14T02:44:20.606Z,100.00
2022-11-14T02:47:41.839Z,100.00
2022-11-14T02:51:04.372Z,100.00
2022-11-14T02:54:29.806Z,100.00
2022-11-14T02:57:51.858Z,100.00
2022-11-14T03:01:21.831Z,100.00
2022-11-14T03:05:03.947Z,100.00
2022-11-14T03:08:24.791Z,100.00
2022-11-14T03:12:06.435Z,100.00
2022-11-14T03:15:41.511Z,100.00
2022-11-14T03:19:19.412Z,100.00
2022-11-14T03:22:40.805Z,100.00
2022-11-14T03:26:34.638Z,100.00
2022-11-14T03:30:06.643Z,100.00
2022-11-14T03:33:47.783Z,100.00
2022-11-14T03:37:09.643Z,100.00
2022-11-14T03:40:32.154Z,100.00
2022-11-14T03:44:05.400Z,100.00
2022-11-14T03:47:27.509Z,100.00
2022-11-14T03:50:52.382Z,100.00
2022-11-14T03:54:19.844Z,100.00
2022-11-14T03:58:18.411Z,100.00
2022-11-14T04:02:01.507Z,100.00
2022-11-14T04:05:23.790Z,100.00
2022-11-14T04:09:27.969Z,100.00
2022-11-14T04:13:09.410Z,100.00
2022-11-14T04:16:30.350Z,100.00
2022-11-14T04:19:53.072Z,100.00
2022-11-14T04:23:34.266Z,100.00
2022-11-14T04:26:55.260Z,100.00
2022-11-14T04:30:52.862Z,100.00
2022-11-14T04:34:11.156Z,100.00
2022-11-14T04:37:34.387Z,100.00
2022-11-14T04:41:15.490Z,100.00
2022-11-14T04:44:57.014Z,100.00
2022-11-14T04:49:03.124Z,100.00
2022-11-14T04:52:32.510Z,100.00
2022-11-14T04:56:01.521Z,100.00
2022-11-14T04:59:37.707Z,100.00
2022-11-14T05:03:19.316Z,100.00
2022-11-14T05:06:41.832Z,100.00
2022-11-14T05:10:25.710Z,100.00
2022-11-14T05:13:50.649Z,100.00
2022-11-14T05:17:35.377Z,100.00
2022-11-14T05:21:16.615Z,100.00
2022-11-14T05:24:39.967Z,100.00
2022-11-14T05:28:03.851Z,100.00
2022-11-14T05:31:26.672Z,100.00
2022-11-14T05:35:09.776Z,100.00
2022-11-14T05:38:31.511Z,100.00
2022-11-14T05:41:58.222Z,100.00
2022-11-14T05:45:39.894Z,100.00
2022-11-14T05:49:42.615Z,100.00
2022-11-14T05:52:57.009Z,100.00
2022-11-14T05:56:25.286Z,100.00
2022-11-14T05:59:52.080Z,100.00
2022-11-14T06:03:38.883Z,100.00
2022-11-14T06:07:15.157Z,100.00
2022-11-14T06:10:53.625Z,100.00
2022-11-14T06:14:17.912Z,100.00
2022-11-14T06:17:35.837Z,100.00
2022-11-14T06:21:20.136Z,100.00
2022-11-14T06:24:43.285Z,100.00
2022-11-14T06:28:06.626Z,100.00
2022-11-14T06:31:38.109Z,100.00
2022-11-14T06:34:59.590Z,100.00
2022-11-14T06:38:43.754Z,100.00
2022-11-14T06:42:25.397Z,100.00
2022-11-14T06:46:09.731Z,100.00
2022-11-14T06:49:31.946Z,100.00
2022-11-14T06:52:58.888Z,100.00
2022-11-14T06:56:37.697Z,100.00
2022-11-14T07:00:04.007Z,100.00
2022-11-14T07:03:47.649Z,100.00
2022-11-14T07:07:16.837Z,100.00
2022-11-14T07:10:40.291Z,100.00
2022-11-14T07:14:04.755Z,100.00
2022-11-14T07:17:46.078Z,100.00
2022-11-14T07:21:15.594Z,100.00
2022-11-14T07:24:40.462Z,100.00
2022-11-14T07:28:09.676Z,100.00
2022-11-14T07:31:35.010Z,100.00
2022-11-14T07:35:01.721Z,100.00
2022-11-14T07:38:32.773Z,100.00
2022-11-14T07:42:13.856Z,100.00
2022-11-14T07:46:02.737Z,100.00
2022-11-14T07:49:30.095Z,100.00
2022-11-14T07:53:11.539Z,100.00
2022-11-14T07:56:40.150Z,100.00
2022-11-14T08:00:05.725Z,100.00
2022-11-14T08:03:34.735Z,100.00
2022-11-14T08:07:21.534Z,100.00
2022-11-14T08:10:43.979Z,100.00
2022-11-14T08:14:05.879Z,100.00
2022-11-14T08:17:34.887Z,100.00
2022-11-14T08:21:03.352Z,100.00
2022-11-14T08:24:44.860Z,100.00
2022-11-14T08:28:06.132Z,100.00
2022-11-14T08:31:47.345Z,100.00
2022-11-14T08:35:08.784Z,100.00
2022-11-14T08:38:39.426Z,100.00
2022-11-14T08:42:01.155Z,100.00
2022-11-14T08:45:46.277Z,100.00
2022-11-14T08:49:11.387Z,100.00
2022-11-14T08:52:37.932Z,100.00
2022-11-14T08:56:19.621Z,100.00
2022-11-14T08:59:49.466Z,100.00
2022-11-14T09:03:14.212Z,100.00
2022-11-14T09:06:35.401Z,100.00
2022-11-14T09:09:56.840Z,100.00
2022-11-14T09:13:22.698Z,100.00
2022-11-14T09:16:49.712Z,100.00
2022-11-14T09:27:54.127Z,100.00
2022-11-14T09:38:44.674Z,100.00
2022-11-14T09:42:54.263Z,100.00
2022-11-14T09:46:27.881Z,100.00
2022-11-14T09:54:24.576Z,100.00
2022-11-14T09:58:20.875Z,100.00
2022-11-14T10:02:12.119Z,99.68
2022-11-14T10:05:45.653Z,99.81
2022-11-14T10:09:30.653Z,99.37
2022-11-14T10:13:23.639Z,98.65
2022-11-14T10:17:09.269Z,97.97
2022-11-14T10:20:42.604Z,97.45
2022-11-14T10:24:19.218Z,97.80
2022-11-14T10:28:17.323Z,96.44
2022-11-14T10:32:12.553Z,96.53
2022-11-14T10:35:55.531Z,95.38
2022-11-14T10:39:24.890Z,95.50
2022-11-14T10:42:50.331Z,94.74
2022-11-14T10:46:19.892Z,93.87
2022-11-14T10:49:41.240Z,94.55
2022-11-14T10:53:50.760Z,94.12
2022-11-14T10:57:32.116Z,93.13
2022-11-14T11:01:38.895Z,91.98
2022-11-14T11:05:28.130Z,89.38
2022-11-14T11:09:47.417Z,85.81
2022-11-14T11:13:23.973Z,81.62
2022-11-14T11:17:21.275Z,79.73
2022-11-14T11:21:51.898Z,79.73
2022-11-14T11:25:29.763Z,76.73
2022-11-14T11:29:12.667Z,74.73
2022-11-14T11:32:51.860Z,70.81
2022-11-14T11:36:32.772Z,69.87
2022-11-14T11:40:05.284Z,71.47
2022-11-14T11:43:40.805Z,71.63
2022-11-14T11:47:18.108Z,75.22
2022-11-14T11:51:06.171Z,76.58
2022-11-14T11:55:08.973Z,76.20
2022-11-14T11:58:49.735Z,76.50
2022-11-14T12:02:24.705Z,75.91
2022-11-14T12:05:49.288Z,76.35
2022-11-14T12:12:44.661Z,78.12
2022-11-14T12:16:20.885Z,77.79
2022-11-14T12:20:00.855Z,78.00
2022-11-14T12:23:42.072Z,77.46
2022-11-14T12:31:52.043Z,77.43
2022-11-14T12:47:25.042Z,76.78
2022-11-14T12:50:49.807Z,75.88
2022-11-14T12:54:57.625Z,75.56
2022-11-14T12:58:52.655Z,74.76
2022-11-14T13:02:41.308Z,73.96
2022-11-14T13:06:07.965Z,73.39
2022-11-14T13:09:41.111Z,71.99
2022-11-14T13:13:36.418Z,72.06
2022-11-14T13:17:39.088Z,71.92
2022-11-14T13:21:49.057Z,71.51
2022-11-14T13:25:24.905Z,71.30
2022-11-14T13:28:51.196Z,69.90
2022-11-14T13:32:42.232Z,70.91
2022-11-14T13:36:07.010Z,70.12
2022-11-14T13:40:18.581Z,70.54
2022-11-14T13:44:16.543Z,70.91
2022-11-14T13:48:09.668Z,72.02
2022-11-14T13:52:08.595Z,72.98
2022-11-14T13:55:50.766Z,73.11
2022-11-14T13:59:35.752Z,72.95
2022-11-14T14:42:41.989Z,84.19
2022-11-14T14:46:05.791Z,85.08
2022-11-14T15:04:41.336Z,93.47
2022-11-14T15:12:03.611Z,95.32
2022-11-14T15:15:47.879Z,96.46
2022-11-14T15:23:15.597Z,99.27
2022-11-14T15:26:41.127Z,100.00
2022-11-14T15:30:26.173Z,100.00
2022-11-14T15:34:21.472Z,100.00
2022-11-14T15:38:36.888Z,100.00
2022-11-14T15:41:41.067Z,100.00
2022-11-14T15:45:25.274Z,100.00
2022-11-14T15:49:07.989Z,100.00
2022-11-14T15:52:46.949Z,100.00
2022-11-14T15:56:04.155Z,100.00
2022-11-14T15:59:36.505Z,100.00
2022-11-14T16:03:34.925Z,100.00
2022-11-14T16:07:20.117Z,100.00
2022-11-14T16:11:11.991Z,100.00
2022-11-14T16:14:33.576Z,100.00
2022-11-14T16:17:56.541Z,100.00
2022-11-14T16:21:28.464Z,100.00
2022-11-14T16:24:50.139Z,100.00
2022-11-14T16:28:12.803Z,100.00
2022-11-14T16:31:34.333Z,100.00
2022-11-14T16:35:15.675Z,100.00
2022-11-14T16:38:39.014Z,100.00
2022-11-14T16:42:04.908Z,100.00
2022-11-14T16:45:46.315Z,100.00
2022-11-14T16:49:24.657Z,100.00
2022-11-14T16:52:45.916Z,100.00
2022-11-14T16:56:12.681Z,100.00
2022-11-14T16:59:34.244Z,100.00
2022-11-14T17:03:20.714Z,100.00
2022-11-14T17:06:43.663Z,100.00
2022-11-14T17:10:09.335Z,100.00
2022-11-14T17:13:38.438Z,100.00
2022-11-14T17:17:10.932Z,100.00
2022-11-14T17:20:53.688Z,100.00
2022-11-14T17:24:39.918Z,100.00
2022-11-14T17:28:46.383Z,100.00
2022-11-14T17:32:30.256Z,100.00
2022-11-14T17:36:12.705Z,100.00
2022-11-14T17:39:54.133Z,100.00
2022-11-14T17:47:11.605Z,100.00
2022-11-14T17:50:48.671Z,100.00
2022-11-14T17:54:29.469Z,100.00
2022-11-14T17:57:51.363Z,100.00
2022-11-14T18:01:48.188Z,100.00
2022-11-14T18:05:24.106Z,100.00
2022-11-14T18:09:05.341Z,100.00
2022-11-14T18:12:23.474Z,100.00
2022-11-14T18:15:52.722Z,100.00
2022-11-14T18:19:16.736Z,100.00
2022-11-14T18:22:52.815Z,100.00
2022-11-14T18:26:34.322Z,100.00
2022-11-14T18:30:41.306Z,100.00
2022-11-14T18:34:03.037Z,100.00
2022-11-14T18:37:24.742Z,100.00
2022-11-14T18:40:46.304Z,100.00
2022-11-14T18:44:07.529Z,100.00
2022-11-14T18:47:31.773Z,100.00
2022-11-14T18:50:55.538Z,100.00
2022-11-14T18:54:20.662Z,100.00
2022-11-14T18:58:08.603Z,100.00
2022-11-14T19:01:32.060Z,100.00
2022-11-14T19:04:53.847Z,100.00
2022-11-14T19:08:20.005Z,100.00
2022-11-14T19:12:01.274Z,100.00
2022-11-14T19:15:24.183Z,100.00
2022-11-14T19:18:47.277Z,100.00
2022-11-14T19:26:23.279Z,100.00
2022-11-14T19:29:47.201Z,100.00
2022-11-14T19:33:29.160Z,100.00
2022-11-14T19:37:00.279Z,100.00
2022-11-14T19:40:42.656Z,100.00
2022-11-14T19:44:12.625Z,100.00
2022-11-14T19:47:34.462Z,100.00
2022-11-14T19:51:00.505Z,100.00
2022-11-14T19:54:25.652Z,100.00
2022-11-14T19:57:47.037Z,100.00
2022-11-14T20:01:18.156Z,100.00
2022-11-14T20:04:44.013Z,100.00
2022-11-14T20:08:05.196Z,100.00
2022-11-14T20:11:28.822Z,100.00
2022-11-14T20:14:50.406Z,100.00
2022-11-14T20:18:11.639Z,100.00
2022-11-14T20:21:35.107Z,100.00
2022-11-14T20:24:58.626Z,100.00
2022-11-14T20:28:24.028Z,100.00
2022-11-14T20:32:04.052Z,100.00
2022-11-14T20:35:44.878Z,100.00
2022-11-14T20:39:06.070Z,100.00
2022-11-14T20:42:26.058Z,100.00
2022-11-14T20:46:04.384Z,100.00
2022-11-14T20:49:47.276Z,100.00
2022-11-14T20:53:08.634Z,100.00
2022-11-14T20:56:30.371Z,100.00
2022-11-14T21:00:00.192Z,100.00
2022-11-14T21:03:22.254Z,100.00
2022-11-14T21:06:43.289Z,100.00
2022-11-14T21:10:23.568Z,100.00
2022-11-14T21:13:57.627Z,100.00
2022-11-14T21:17:19.172Z,100.00
2022-11-14T21:20:45.519Z,100.00
2022-11-14T21:24:27.097Z,100.00
2022-11-14T21:27:50.952Z,100.00
2022-11-14T21:31:45.443Z,100.00
2022-11-14T21:35:10.085Z,100.00
2022-11-14T21:38:33.221Z,100.00
2022-11-14T21:41:56.853Z,100.00
2022-11-14T21:45:27.265Z,100.00
2022-11-14T21:48:57.431Z,100.00
2022-11-14T21:52:26.331Z,100.00
2022-11-14T21:56:17.036Z,100.00
2022-11-14T21:59:58.822Z,100.00
2022-11-14T22:03:40.483Z,100.00
2022-11-14T22:07:06.230Z,100.00
2022-11-14T22:10:28.302Z,100.00
2022-11-14T22:13:50.691Z,100.00
2022-11-14T22:17:54.639Z,100.00
2022-11-14T22:21:16.275Z,100.00
2022-11-14T22:24:40.908Z,100.00
2022-11-14T22:28:22.534Z,100.00
2022-11-14T22:32:05.450Z,100.00
2022-11-14T22:35:26.983Z,100.00
2022-11-14T22:38:48.635Z,100.00
2022-11-14T22:42:30.540Z,100.00
2022-11-14T22:46:00.161Z,100.00
2022-11-14T22:49:32.095Z,100.00
2022-11-14T22:53:01.459Z,100.00
2022-11-14T22:56:26.457Z,100.00
2022-11-14T22:59:49.497Z,100.00
2022-11-14T23:03:10.773Z,100.00
2022-11-14T23:11:08.584Z,100.00
2022-11-14T23:14:52.055Z,100.00
2022-11-14T23:18:31.292Z,100.00
2022-11-14T23:22:17.467Z,100.00
2022-11-14T23:26:07.340Z,100.00
2022-11-14T23:29:55.524Z,100.00
2022-11-14T23:33:36.772Z,100.00
2022-11-14T23:37:18.881Z,100.00
2022-11-14T23:41:03.572Z,100.00
2022-11-14T23:44:39.232Z,100.00
2022-11-14T23:48:22.964Z,100.00
2022-11-14T23:52:04.731Z,100.00
2022-11-14T23:56:00.609Z,100.00
